createdAt,value
2017-05-10T00:00:46.758Z,5.67
2017-05-10T00:03:21.946Z,5.88
2017-05-10T00:05:57.713Z,10.52
2017-05-10T00:08:32.971Z,3.12
2017-05-10T00:11:08.037Z,3.35
2017-05-10T00:13:43.208Z,4.65
2017-05-10T00:16:18.458Z,8.08
2017-05-10T00:18:53.689Z,7.97
2017-05-10T00:21:28.868Z,6.12
2017-05-10T00:24:04.174Z,8.17
2017-05-10T00:26:39.267Z,4.40
2017-05-10T00:29:14.476Z,4.73
2017-05-10T00:31:49.706Z,6.70
2017-05-10T00:34:24.943Z,5.75
2017-05-10T00:37:00.218Z,8.48
2017-05-10T00:39:35.499Z,3.68
2017-05-10T00:42:10.807Z,7.40
2017-05-10T00:44:45.979Z,7.27
2017-05-10T00:47:21.114Z,11.28
2017-05-10T00:49:56.371Z,10.22
2017-05-10T00:52:31.704Z,9.23
2017-05-10T00:55:06.940Z,4.35
2017-05-10T00:57:42.270Z,8.58
2017-05-10T01:00:17.626Z,5.67
2017-05-10T01:02:52.795Z,7.12
2017-05-10T01:05:28.095Z,7.78
2017-05-10T01:08:03.652Z,5.73
2017-05-10T01:10:39.668Z,6.50
2017-05-10T01:13:14.775Z,7.92
2017-05-10T01:15:49.996Z,10.77
2017-05-10T01:18:25.223Z,5.37
2017-05-10T01:21:00.462Z,6.28
2017-05-10T01:23:36.497Z,7.98
2017-05-10T01:26:11.535Z,5.35
2017-05-10T01:28:46.795Z,5.27
2017-05-10T01:31:22.122Z,5.65
2017-05-10T01:33:57.363Z,5.87
2017-05-10T01:36:32.443Z,4.53
2017-05-10T01:39:07.659Z,7.48
2017-05-10T01:41:42.804Z,10.82
2017-05-10T01:44:18.103Z,9.88
2017-05-10T01:46:54.265Z,4.00
2017-05-10T01:49:30.221Z,9.67
2017-05-10T01:52:05.417Z,6.70
2017-05-10T01:54:40.710Z,11.88
2017-05-10T01:57:16.233Z,9.97
2017-05-10T01:59:51.469Z,8.12
2017-05-10T02:02:26.928Z,4.85
2017-05-10T02:05:02.163Z,5.32
2017-05-10T02:07:38.113Z,7.55
2017-05-10T02:10:13.136Z,4.62
2017-05-10T02:12:48.235Z,4.17
2017-05-10T02:15:23.414Z,5.02
2017-05-10T02:17:58.627Z,5.87
2017-05-10T02:20:33.904Z,4.57
2017-05-10T02:23:09.242Z,4.75
2017-05-10T02:25:44.511Z,5.90
2017-05-10T02:28:19.828Z,7.25
2017-05-10T02:30:55.030Z,4.30
2017-05-10T02:33:30.115Z,7.45
2017-05-10T02:36:05.341Z,5.78
2017-05-10T02:38:41.307Z,7.97
2017-05-10T02:41:16.621Z,5.13
2017-05-10T02:43:51.655Z,7.80
2017-05-10T02:46:27.593Z,8.48
2017-05-10T02:49:02.736Z,7.37
2017-05-10T02:51:37.966Z,6.35
2017-05-10T02:54:13.055Z,5.02
2017-05-10T02:56:48.255Z,9.17
2017-05-10T02:59:23.731Z,5.18
2017-05-10T03:01:58.992Z,6.95
2017-05-10T03:04:34.248Z,3.18
2017-05-10T03:07:09.540Z,3.20
2017-05-10T03:09:44.580Z,5.58
2017-05-10T03:12:19.835Z,4.92
2017-05-10T03:14:55.145Z,6.92
2017-05-10T03:17:30.331Z,3.90
2017-05-10T03:20:05.407Z,5.20
2017-05-10T03:22:40.659Z,3.87
2017-05-10T03:25:15.810Z,3.58
2017-05-10T03:27:51.063Z,6.08
2017-05-10T03:30:26.288Z,3.98
2017-05-10T03:33:01.524Z,6.22
2017-05-10T03:35:36.798Z,2.90
2017-05-10T03:38:11.936Z,6.02
2017-05-10T03:40:47.060Z,10.12
2017-05-10T03:43:22.251Z,2.02
2017-05-10T03:45:58.095Z,2.30
2017-05-10T03:48:34.119Z,2.67
2017-05-10T03:51:09.531Z,1.87
2017-05-10T03:53:44.721Z,4.33
2017-05-10T03:56:20.005Z,4.77
2017-05-10T03:58:55.204Z,3.42
2017-05-10T04:01:30.334Z,4.37
2017-05-10T04:04:05.459Z,4.42
2017-05-10T04:06:40.635Z,3.68
2017-05-10T04:09:15.851Z,3.87
2017-05-10T04:11:51.047Z,2.25
2017-05-10T04:14:26.247Z,6.00
2017-05-10T04:17:02.076Z,3.40
2017-05-10T04:19:37.319Z,4.05
2017-05-10T04:22:12.628Z,3.42
2017-05-10T04:24:48.102Z,2.80
2017-05-10T04:27:23.335Z,5.57
2017-05-10T04:29:58.390Z,5.93
2017-05-10T04:32:33.623Z,2.63
2017-05-10T04:35:08.897Z,2.68
2017-05-10T04:37:44.111Z,3.33
2017-05-10T04:40:19.243Z,4.32
2017-05-10T04:42:54.518Z,4.10
2017-05-10T04:45:29.622Z,2.52
2017-05-10T04:48:04.851Z,6.63
2017-05-10T04:50:40.079Z,3.23
2017-05-10T04:53:16.121Z,3.42
2017-05-10T04:55:52.011Z,3.82
2017-05-10T04:58:27.267Z,2.30
2017-05-10T05:01:02.649Z,1.38
2017-05-10T05:03:37.946Z,1.62
2017-05-10T05:06:13.475Z,1.67
2017-05-10T05:08:49.410Z,2.63
2017-05-10T05:11:24.494Z,1.20
2017-05-10T05:13:59.667Z,2.70
2017-05-10T05:16:35.547Z,1.52
2017-05-10T05:19:10.821Z,1.88
2017-05-10T05:21:46.837Z,5.60
2017-05-10T05:24:22.087Z,1.82
2017-05-10T05:26:57.427Z,2.07
2017-05-10T05:29:32.646Z,1.72
2017-05-10T05:32:07.807Z,3.50
2017-05-10T05:34:43.050Z,2.72
2017-05-10T05:37:18.124Z,2.90
2017-05-10T05:39:53.991Z,3.17
2017-05-10T05:42:30.086Z,3.30
2017-05-10T05:45:05.267Z,5.05
2017-05-10T05:47:41.072Z,5.20
2017-05-10T05:50:16.322Z,1.78
2017-05-10T05:52:51.339Z,3.60
2017-05-10T05:55:26.526Z,2.82
2017-05-10T05:58:01.766Z,4.38
2017-05-10T06:00:36.968Z,3.95
2017-05-10T06:03:12.286Z,6.18
2017-05-10T06:05:47.551Z,4.90
2017-05-10T06:08:23.509Z,4.72
2017-05-10T06:10:58.702Z,3.57
2017-05-10T06:13:34.202Z,3.68
2017-05-10T06:16:09.390Z,4.42
2017-05-10T06:18:44.746Z,3.03
2017-05-10T06:21:20.762Z,3.88
2017-05-10T06:23:56.303Z,4.10
2017-05-10T06:26:31.513Z,3.93
2017-05-10T06:29:06.652Z,4.22
2017-05-10T06:31:41.889Z,2.38
2017-05-10T06:34:17.155Z,2.35
2017-05-10T06:36:52.348Z,2.82
2017-05-10T06:39:27.599Z,4.83
2017-05-10T06:42:02.787Z,3.67
2017-05-10T06:44:38.276Z,1.83
2017-05-10T06:47:13.509Z,3.73
2017-05-10T06:49:48.952Z,3.32
2017-05-10T06:52:24.383Z,5.95
2017-05-10T06:54:59.754Z,7.92
2017-05-10T06:57:35.799Z,4.18
2017-05-10T07:00:11.727Z,2.17
2017-05-10T07:02:47.779Z,2.45
2017-05-10T07:05:22.851Z,3.08
2017-05-10T07:07:58.178Z,1.72
2017-05-10T07:10:33.265Z,2.07
2017-05-10T07:13:08.484Z,2.77
2017-05-10T07:15:43.727Z,5.07
2017-05-10T07:18:19.150Z,2.68
2017-05-10T07:20:54.290Z,5.18
2017-05-10T07:23:29.426Z,2.62
2017-05-10T07:26:04.673Z,1.72
2017-05-10T07:28:40.202Z,2.50
2017-05-10T07:31:15.314Z,1.07
2017-05-10T07:33:50.773Z,2.57
2017-05-10T07:36:26.094Z,1.00
2017-05-10T07:39:02.182Z,1.02
2017-05-10T07:41:37.414Z,0.70
2017-05-10T07:44:12.742Z,0.92
2017-05-10T07:46:48.006Z,0.70
2017-05-10T07:49:23.514Z,0.95
2017-05-10T07:51:58.783Z,1.00
2017-05-10T07:54:34.299Z,1.03
2017-05-10T07:57:09.284Z,1.88
2017-05-10T07:59:44.419Z,1.07
2017-05-10T08:02:19.633Z,1.33
2017-05-10T08:04:54.948Z,1.60
2017-05-10T08:07:30.181Z,0.73
2017-05-10T08:10:06.162Z,0.95
2017-05-10T08:12:41.478Z,1.25
2017-05-10T08:15:16.722Z,1.20
2017-05-10T08:17:51.823Z,1.08
2017-05-10T08:20:26.977Z,1.12
2017-05-10T08:23:02.151Z,0.70
2017-05-10T08:25:37.982Z,0.68
2017-05-10T08:28:13.230Z,1.20
2017-05-10T08:30:49.082Z,1.10
2017-05-10T08:33:24.295Z,1.33
2017-05-10T08:35:59.393Z,0.80
2017-05-10T08:38:35.374Z,1.47
2017-05-10T08:41:11.258Z,1.40
2017-05-10T08:43:47.189Z,2.05
2017-05-10T08:46:22.559Z,1.33
2017-05-10T08:48:57.903Z,1.20
2017-05-10T08:51:33.195Z,0.85
2017-05-10T08:54:08.994Z,1.75
2017-05-10T08:56:44.339Z,1.05
2017-05-10T08:59:19.463Z,1.22
2017-05-10T09:01:55.010Z,4.57
2017-05-10T09:04:30.262Z,0.88
2017-05-10T09:07:05.545Z,2.48
2017-05-10T09:09:40.822Z,0.70
2017-05-10T09:12:16.167Z,1.75
2017-05-10T09:14:51.302Z,1.20
2017-05-10T09:17:26.538Z,1.58
2017-05-10T09:20:02.507Z,3.60
2017-05-10T09:22:37.863Z,1.60
2017-05-10T09:25:12.929Z,1.73
2017-05-10T09:27:48.013Z,3.05
2017-05-10T09:30:23.250Z,1.32
2017-05-10T09:32:58.691Z,1.83
2017-05-10T09:35:33.871Z,2.95
2017-05-10T09:38:09.269Z,1.10
2017-05-10T09:40:44.526Z,1.27
2017-05-10T09:43:19.818Z,0.85
2017-05-10T09:45:54.960Z,2.62
2017-05-10T09:48:30.155Z,3.72
2017-05-10T09:51:06.138Z,1.12
2017-05-10T09:53:41.459Z,1.47
2017-05-10T09:56:16.779Z,1.60
2017-05-10T09:58:52.100Z,1.40
2017-05-10T10:01:27.318Z,2.23
2017-05-10T10:04:02.388Z,1.38
2017-05-10T10:06:37.629Z,1.42
2017-05-10T10:09:13.470Z,1.10
2017-05-10T10:11:48.728Z,2.13
2017-05-10T10:14:23.785Z,3.33
2017-05-10T10:16:58.993Z,1.58
2017-05-10T10:19:34.311Z,0.90
2017-05-10T10:22:10.330Z,1.17
2017-05-10T10:24:45.434Z,0.78
2017-05-10T10:27:20.746Z,0.72
2017-05-10T10:29:56.186Z,1.17
2017-05-10T10:32:31.338Z,3.28
2017-05-10T10:35:06.663Z,1.40
2017-05-10T10:37:42.624Z,2.57
2017-05-10T10:40:17.958Z,0.90
2017-05-10T10:42:53.195Z,1.52
2017-05-10T10:45:28.543Z,0.80
2017-05-10T10:48:04.675Z,0.80
2017-05-10T10:50:39.927Z,1.27
2017-05-10T10:53:15.281Z,1.72
2017-05-10T10:55:50.457Z,0.70
2017-05-10T10:58:25.466Z,1.87
2017-05-10T11:01:00.701Z,0.92
2017-05-10T11:03:36.645Z,1.58
2017-05-10T11:06:11.902Z,1.73
2017-05-10T11:08:46.974Z,1.40
2017-05-10T11:11:22.237Z,0.97
2017-05-10T11:13:57.317Z,1.32
2017-05-10T11:16:32.498Z,0.82
2017-05-10T11:19:07.768Z,1.37
2017-05-10T11:21:43.010Z,1.18
2017-05-10T11:24:18.597Z,1.20
2017-05-10T11:26:53.724Z,0.83
2017-05-10T11:29:29.522Z,2.07
2017-05-10T11:32:04.800Z,1.62
2017-05-10T11:34:40.018Z,1.40
2017-05-10T11:37:15.252Z,1.25
2017-05-10T11:39:50.418Z,1.78
2017-05-10T11:42:25.475Z,2.77
2017-05-10T11:45:01.591Z,0.90
2017-05-10T11:47:36.877Z,2.92
2017-05-10T11:50:12.088Z,1.35
2017-05-10T11:52:48.046Z,5.30
2017-05-10T11:55:23.323Z,1.97
2017-05-10T11:57:59.315Z,2.25
2017-05-10T12:00:34.553Z,1.72
2017-05-10T12:03:27.407Z,1.23
2017-05-10T12:06:08.743Z,3.13
2017-05-10T12:08:43.926Z,1.23
2017-05-10T12:11:19.345Z,2.00
2017-05-10T12:13:54.995Z,2.68
2017-05-10T12:16:30.082Z,3.23
2017-05-10T12:19:05.314Z,1.38
2017-05-10T12:21:40.526Z,6.50
2017-05-10T12:24:15.743Z,4.02
2017-05-10T12:26:50.918Z,3.93
2017-05-10T12:29:26.342Z,2.55
2017-05-10T12:32:01.614Z,3.48
2017-05-10T12:34:36.927Z,0.90
2017-05-10T12:37:12.267Z,3.32
2017-05-10T12:39:47.478Z,1.42
2017-05-10T12:42:22.765Z,2.57
2017-05-10T12:44:58.083Z,2.37
2017-05-10T12:47:33.229Z,2.85
2017-05-10T12:50:08.328Z,2.00
2017-05-10T12:52:44.549Z,2.45
2017-05-10T12:55:19.722Z,6.47
2017-05-10T12:57:55.029Z,1.85
2017-05-10T13:00:30.346Z,2.83
2017-05-10T13:03:05.575Z,3.48
2017-05-10T13:05:41.121Z,5.32
2017-05-10T13:08:16.377Z,1.58
2017-05-10T13:10:52.333Z,1.98
2017-05-10T13:13:27.531Z,1.58
2017-05-10T13:16:02.888Z,1.67
2017-05-10T13:18:38.035Z,1.40
2017-05-10T13:21:13.121Z,3.60
2017-05-10T13:23:48.372Z,1.68
2017-05-10T13:26:23.588Z,2.10
2017-05-10T13:28:58.859Z,1.73
2017-05-10T13:31:33.990Z,2.68
2017-05-10T13:34:09.319Z,1.92
2017-05-10T13:36:44.706Z,2.38
2017-05-10T13:39:19.814Z,1.62
2017-05-10T13:41:54.907Z,2.72
2017-05-10T13:44:30.117Z,1.15
2017-05-10T13:47:05.178Z,1.72
2017-05-10T13:49:40.419Z,3.10
2017-05-10T13:52:15.606Z,1.80
2017-05-10T13:54:50.602Z,4.73
2017-05-10T13:57:25.639Z,4.53
2017-05-10T14:00:00.786Z,1.85
2017-05-10T14:02:36.082Z,2.67
2017-05-10T14:05:11.274Z,2.22
2017-05-10T14:07:46.489Z,4.48
2017-05-10T14:10:21.719Z,2.23
2017-05-10T14:12:56.950Z,2.58
2017-05-10T14:15:32.200Z,2.65
2017-05-10T14:18:07.364Z,4.07
2017-05-10T14:20:42.476Z,3.30
2017-05-10T14:23:17.723Z,2.68
2017-05-10T14:25:53.728Z,1.65
2017-05-10T14:28:29.002Z,4.28
2017-05-10T14:31:04.226Z,1.52
2017-05-10T14:33:39.470Z,2.08
2017-05-10T14:36:14.696Z,1.43
2017-05-10T14:38:49.945Z,1.83
2017-05-10T14:41:25.268Z,3.90
2017-05-10T14:44:01.169Z,2.07
2017-05-10T14:46:36.463Z,2.18
2017-05-10T14:49:12.458Z,1.70
2017-05-10T14:51:47.651Z,2.08
2017-05-10T14:54:22.874Z,5.63
2017-05-10T14:56:58.184Z,3.37
2017-05-10T14:59:33.527Z,5.22
2017-05-10T15:02:08.747Z,1.95
2017-05-10T15:04:43.935Z,2.15
2017-05-10T15:07:19.185Z,2.67
2017-05-10T15:09:54.381Z,2.50
2017-05-10T15:12:30.332Z,2.57
2017-05-10T15:15:05.614Z,4.55
2017-05-10T15:17:40.813Z,3.95
2017-05-10T15:20:15.884Z,4.95
2017-05-10T15:22:51.027Z,3.90
2017-05-10T15:25:26.346Z,6.07
2017-05-10T15:28:01.587Z,3.85
2017-05-10T15:30:36.823Z,2.97
2017-05-10T15:33:12.094Z,2.58
2017-05-10T15:35:47.929Z,3.27
2017-05-10T15:38:23.086Z,3.45
2017-05-10T15:40:58.371Z,2.60
2017-05-10T15:43:33.743Z,8.47
2017-05-10T15:46:09.083Z,10.72
2017-05-10T15:48:44.228Z,2.35
2017-05-10T15:51:19.364Z,3.50
2017-05-10T15:53:54.480Z,4.12
2017-05-10T15:56:29.667Z,3.10
2017-05-10T15:59:04.858Z,3.87
2017-05-10T16:01:40.057Z,8.28
2017-05-10T16:04:15.141Z,8.85
2017-05-10T16:06:50.366Z,2.67
2017-05-10T16:09:25.542Z,5.00
2017-05-10T16:12:00.850Z,3.05
2017-05-10T16:14:36.190Z,3.37
2017-05-10T16:17:11.470Z,3.83
2017-05-10T16:19:46.542Z,3.35
2017-05-10T16:22:21.876Z,3.97
2017-05-10T16:24:57.126Z,2.98
2017-05-10T16:27:32.446Z,3.17
2017-05-10T16:30:07.570Z,8.22
2017-05-10T16:32:44.090Z,5.52
2017-05-10T16:35:19.337Z,2.62
2017-05-10T16:37:54.618Z,5.47
2017-05-10T16:40:30.874Z,2.72
2017-05-10T16:43:06.086Z,5.03
2017-05-10T16:45:42.589Z,4.20
2017-05-10T16:48:17.628Z,8.93
2017-05-10T16:50:52.722Z,6.02
2017-05-10T16:53:28.798Z,2.87
2017-05-10T16:56:04.044Z,4.33
2017-05-10T16:58:39.914Z,4.47
2017-05-10T17:01:16.014Z,2.23
2017-05-10T17:03:51.247Z,4.13
2017-05-10T17:06:26.557Z,2.73
2017-05-10T17:09:01.922Z,3.47
2017-05-10T17:11:37.103Z,3.13
2017-05-10T17:14:12.411Z,5.02
2017-05-10T17:16:47.859Z,2.77
2017-05-10T17:19:22.998Z,5.05
2017-05-10T17:21:58.422Z,1.98
2017-05-10T17:24:33.527Z,2.02
2017-05-10T17:27:08.707Z,2.00
2017-05-10T17:29:43.935Z,2.78
2017-05-10T17:32:19.175Z,7.75
2017-05-10T17:34:54.439Z,2.23
2017-05-10T17:37:29.622Z,3.98
2017-05-10T17:40:04.803Z,3.82
2017-05-10T17:42:39.887Z,4.58
2017-05-10T17:45:15.062Z,6.15
2017-05-10T17:47:51.131Z,4.18
2017-05-10T17:50:26.278Z,5.02
2017-05-10T17:53:01.556Z,4.30
2017-05-10T17:55:37.542Z,7.78
2017-05-10T17:58:12.846Z,4.57
2017-05-10T18:00:48.042Z,5.00
2017-05-10T18:03:24.004Z,5.40
2017-05-10T18:05:59.254Z,6.55
2017-05-10T18:08:34.361Z,8.52
2017-05-10T18:11:10.267Z,3.78
2017-05-10T18:13:45.660Z,9.80
2017-05-10T18:16:20.759Z,4.65
2017-05-10T18:18:55.842Z,2.73
2017-05-10T18:21:31.067Z,7.32
2017-05-10T18:24:06.346Z,4.70
2017-05-10T18:26:41.607Z,3.22
2017-05-10T18:29:16.819Z,6.43
2017-05-10T18:31:52.903Z,6.03
2017-05-10T18:34:28.087Z,5.47
2017-05-10T18:37:03.507Z,4.05
2017-05-10T18:39:38.607Z,3.90
2017-05-10T18:42:13.848Z,4.42
2017-05-10T18:44:49.061Z,7.18
2017-05-10T18:47:24.431Z,4.33
2017-05-10T18:50:00.298Z,7.10
2017-05-10T18:52:36.220Z,4.68
2017-05-10T18:55:11.446Z,4.88
2017-05-10T18:57:46.668Z,7.48
2017-05-10T19:00:21.949Z,4.78
2017-05-10T19:02:57.165Z,10.05
2017-05-10T19:05:32.675Z,7.50
2017-05-10T19:08:07.916Z,6.17
2017-05-10T19:10:43.067Z,12.03
2017-05-10T19:13:18.420Z,4.02
2017-05-10T19:15:53.683Z,5.80
2017-05-10T19:18:28.925Z,6.62
2017-05-10T19:21:04.198Z,7.93
2017-05-10T19:23:39.383Z,6.92
2017-05-10T19:26:14.520Z,7.38
2017-05-10T19:28:50.429Z,7.90
2017-05-10T19:31:25.880Z,5.35
2017-05-10T19:34:01.139Z,7.60
2017-05-10T19:36:36.964Z,4.50
2017-05-10T19:39:12.311Z,3.88
2017-05-10T19:41:47.527Z,8.03
2017-05-10T19:44:22.747Z,4.83
2017-05-10T19:46:57.946Z,3.58
2017-05-10T19:49:33.077Z,6.63
2017-05-10T19:52:08.291Z,4.45
2017-05-10T19:54:43.648Z,6.75
2017-05-10T19:57:18.847Z,6.37
2017-05-10T19:59:54.409Z,6.37
2017-05-10T20:02:29.630Z,4.35
2017-05-10T20:05:04.931Z,7.02
2017-05-10T20:07:40.190Z,10.42
2017-05-10T20:10:15.537Z,6.95
2017-05-10T20:12:51.093Z,6.43
2017-05-10T20:15:26.370Z,6.20
2017-05-10T20:18:01.823Z,7.75
2017-05-10T20:20:36.862Z,6.98
2017-05-10T20:23:13.149Z,10.78
2017-05-10T20:25:49.218Z,8.68
2017-05-10T20:28:24.302Z,5.67
2017-05-10T20:30:59.339Z,8.85
2017-05-10T20:33:34.598Z,7.13
2017-05-10T20:36:09.774Z,4.75
2017-05-10T20:38:45.046Z,9.55
2017-05-10T20:41:20.093Z,6.77
2017-05-10T20:43:55.279Z,4.48
2017-05-10T20:46:30.386Z,5.35
2017-05-10T20:49:05.547Z,8.53
2017-05-10T20:51:40.751Z,7.02
2017-05-10T20:54:16.762Z,5.08
2017-05-10T20:56:52.039Z,8.60
2017-05-10T20:59:27.334Z,4.08
2017-05-10T21:02:02.623Z,7.93
2017-05-10T21:04:37.822Z,6.68
2017-05-10T21:07:13.079Z,5.02
2017-05-10T21:09:48.321Z,4.43
2017-05-10T21:12:23.358Z,12.80
2017-05-10T21:14:58.936Z,7.28
2017-05-10T21:17:34.148Z,6.33
2017-05-10T21:20:10.222Z,7.95
2017-05-10T21:22:45.554Z,8.35
2017-05-10T21:25:20.817Z,7.63
2017-05-10T21:27:56.144Z,9.17
2017-05-10T21:30:31.471Z,5.73
2017-05-10T21:33:06.737Z,7.22
2017-05-10T21:35:42.242Z,4.33
2017-05-10T21:38:17.583Z,11.00
2017-05-10T21:40:53.855Z,9.60
2017-05-10T21:43:29.090Z,10.35
2017-05-10T21:46:04.391Z,6.32
2017-05-10T21:48:39.596Z,7.62
2017-05-10T21:51:14.797Z,6.02
2017-05-10T21:53:50.856Z,10.58
2017-05-10T21:56:26.820Z,8.45
2017-05-10T21:59:01.981Z,9.00
2017-05-10T22:01:37.350Z,9.80
2017-05-10T22:04:12.606Z,8.15
2017-05-10T22:06:47.781Z,8.05
2017-05-10T22:09:23.036Z,10.42
2017-05-10T22:11:58.169Z,8.02
2017-05-10T22:14:33.346Z,13.17
2017-05-10T22:17:08.503Z,7.08
2017-05-10T22:19:44.461Z,7.60
2017-05-10T22:22:19.736Z,7.93
2017-05-10T22:24:54.914Z,9.43
2017-05-10T22:27:30.182Z,10.72
2017-05-10T22:30:05.422Z,9.53
2017-05-10T22:32:40.582Z,8.03
2017-05-10T22:35:15.968Z,8.95
2017-05-10T22:37:51.456Z,11.15
2017-05-10T22:40:26.678Z,12.75
2017-05-10T22:43:02.093Z,11.47
2017-05-10T22:45:37.294Z,13.40
2017-05-10T22:48:12.375Z,14.90
2017-05-10T22:50:48.230Z,18.17
2017-05-10T22:53:23.346Z,13.63
2017-05-10T22:55:59.338Z,13.00
2017-05-10T22:58:35.328Z,15.13
2017-05-10T23:01:10.450Z,9.67
2017-05-10T23:03:46.598Z,10.05
2017-05-10T23:06:21.812Z,13.60
2017-05-10T23:08:57.315Z,8.32
2017-05-10T23:11:32.587Z,11.43
2017-05-10T23:14:07.706Z,7.75
2017-05-10T23:16:42.958Z,13.72
2017-05-10T23:19:18.245Z,10.62
2017-05-10T23:21:54.265Z,16.20
2017-05-10T23:24:29.619Z,10.95
2017-05-10T23:27:04.884Z,10.73
2017-05-10T23:29:40.827Z,16.02
2017-05-10T23:32:16.922Z,12.13
2017-05-10T23:34:52.138Z,13.40
2017-05-10T23:37:28.002Z,12.17
2017-05-10T23:40:03.209Z,14.82
2017-05-10T23:42:38.583Z,13.40
2017-05-10T23:45:13.787Z,11.27
2017-05-10T23:47:48.966Z,19.03
2017-05-10T23:50:24.196Z,31.05
2017-05-10T23:52:59.331Z,22.65
2017-05-10T23:55:34.602Z,18.05
2017-05-10T23:58:10.190Z,14.82
